createdAt,value
2018-06-30T00:04:07.577Z,74.50
2018-06-30T00:06:35.476Z,74.80
2018-06-30T00:09:06.646Z,74.70
2018-06-30T00:14:02.475Z,74.90
2018-06-30T00:18:58.288Z,75.10
2018-06-30T00:21:26.157Z,75.30
2018-06-30T00:23:54.057Z,74.70
2018-06-30T00:26:21.950Z,75.00
2018-06-30T00:28:49.885Z,75.50
2018-06-30T00:31:17.800Z,75.20
2018-06-30T00:33:45.725Z,75.20
2018-06-30T00:36:13.613Z,86.60
2018-06-30T00:38:41.481Z,87.40
2018-06-30T00:41:09.383Z,88.10
2018-06-30T00:43:37.248Z,75.50
2018-06-30T00:46:05.156Z,75.30
2018-06-30T00:48:33.049Z,75.30
2018-06-30T00:51:00.982Z,75.50
2018-06-30T00:55:56.717Z,75.60
2018-06-30T00:58:24.620Z,75.20
2018-06-30T01:00:52.521Z,75.10
2018-06-30T01:03:20.480Z,75.50
2018-06-30T01:05:48.400Z,75.80
2018-06-30T01:08:16.310Z,75.60
2018-06-30T01:10:44.229Z,76.10
2018-06-30T01:13:12.093Z,76.30
2018-06-30T01:15:40.030Z,76.40
2018-06-30T01:23:03.741Z,77.10
2018-06-30T01:25:31.634Z,89.50
2018-06-30T01:27:59.526Z,89.70
2018-06-30T01:30:27.382Z,90.00
2018-06-30T01:32:55.263Z,77.80
2018-06-30T01:35:23.131Z,78.00
2018-06-30T01:37:51.021Z,78.30
2018-06-30T01:40:18.928Z,77.70
2018-06-30T01:42:46.807Z,78.70
2018-06-30T01:45:14.700Z,78.90
2018-06-30T01:47:42.581Z,79.20
2018-06-30T01:52:38.360Z,79.40
2018-06-30T01:55:06.257Z,79.60
2018-06-30T01:57:34.170Z,80.80
2018-06-30T02:00:02.090Z,91.40
2018-06-30T02:02:29.970Z,81.00
2018-06-30T02:04:57.876Z,80.50
2018-06-30T02:07:25.759Z,79.20
2018-06-30T02:09:53.769Z,79.90
2018-06-30T02:12:21.642Z,80.60
2018-06-30T02:14:49.504Z,80.80
2018-06-30T02:17:17.413Z,80.80
2018-06-30T02:19:45.283Z,80.80
2018-06-30T02:22:13.154Z,80.60
2018-06-30T02:24:41.074Z,80.70
2018-06-30T02:29:37.167Z,81.00
2018-06-30T02:32:05.050Z,80.90
2018-06-30T02:34:32.936Z,81.40
2018-06-30T02:37:00.855Z,91.60
2018-06-30T02:39:28.726Z,91.60
2018-06-30T02:41:56.627Z,91.90
2018-06-30T02:44:24.504Z,82.40
2018-06-30T02:46:52.403Z,82.40
2018-06-30T02:49:20.331Z,81.50
2018-06-30T02:51:48.240Z,81.40
2018-06-30T02:54:16.136Z,81.60
2018-06-30T02:56:43.999Z,81.30
2018-06-30T02:59:11.969Z,80.90
2018-06-30T03:01:39.853Z,81.80
2018-06-30T03:04:07.718Z,82.70
2018-06-30T03:06:35.626Z,82.60
2018-06-30T03:11:34.306Z,82.90
2018-06-30T03:14:02.203Z,82.00
2018-06-30T03:16:30.110Z,82.80
2018-06-30T03:18:57.991Z,82.10
2018-06-30T03:21:25.871Z,82.00
2018-06-30T03:26:21.677Z,81.60
2018-06-30T03:28:49.621Z,81.60
2018-06-30T03:31:17.515Z,82.30
2018-06-30T03:33:45.415Z,82.00
2018-06-30T03:38:41.243Z,82.60
2018-06-30T03:41:09.149Z,82.80
2018-06-30T03:43:37.048Z,83.40
2018-06-30T03:46:04.961Z,83.40
2018-06-30T03:51:00.760Z,83.40
2018-06-30T03:53:28.690Z,83.00
2018-06-30T03:55:56.636Z,92.00
2018-06-30T03:58:24.542Z,82.60
2018-06-30T04:00:52.437Z,82.60
2018-06-30T04:03:20.360Z,82.80
2018-06-30T04:05:48.266Z,82.30
2018-06-30T04:08:16.240Z,83.30
2018-06-30T04:10:44.199Z,83.30
2018-06-30T04:13:12.078Z,82.80
2018-06-30T04:18:07.859Z,82.40
2018-06-30T04:20:35.737Z,82.30
2018-06-30T04:23:03.638Z,82.70
2018-06-30T04:25:31.548Z,82.40
2018-06-30T04:30:27.337Z,83.30
2018-06-30T04:32:55.217Z,83.20
2018-06-30T04:37:51.055Z,83.10
2018-06-30T04:42:46.933Z,83.30
2018-06-30T04:45:14.853Z,92.20
2018-06-30T04:47:42.780Z,82.50
2018-06-30T04:50:10.687Z,92.30
2018-06-30T04:55:06.594Z,83.60
2018-06-30T04:57:34.996Z,82.60
2018-06-30T05:00:02.927Z,82.00
2018-06-30T05:02:30.807Z,83.10
2018-06-30T05:04:58.696Z,92.50
2018-06-30T05:07:26.668Z,82.20
2018-06-30T05:14:50.373Z,91.20
2018-06-30T05:17:18.264Z,92.40
2018-06-30T05:19:46.153Z,92.00
2018-06-30T05:22:14.077Z,82.20
2018-06-30T05:27:09.840Z,81.80
2018-06-30T05:29:37.708Z,82.00
2018-06-30T05:32:05.602Z,82.50
2018-06-30T05:34:33.458Z,82.30
2018-06-30T05:37:01.340Z,82.30
2018-06-30T05:39:29.215Z,81.80
2018-06-30T05:41:57.084Z,81.70
2018-06-30T05:44:25.047Z,82.00
2018-06-30T05:46:52.953Z,81.60
2018-06-30T05:49:20.859Z,81.00
2018-06-30T05:51:48.815Z,80.80
2018-06-30T05:54:16.691Z,80.60
2018-06-30T05:56:44.588Z,80.60
2018-06-30T06:01:40.384Z,80.40
2018-06-30T06:04:08.286Z,80.00
2018-06-30T06:06:36.149Z,79.80
2018-06-30T06:09:07.651Z,79.70
2018-06-30T06:11:35.680Z,78.80
2018-06-30T06:14:04.024Z,78.40
2018-06-30T06:16:32.116Z,78.10
2018-06-30T06:18:59.971Z,90.00
2018-06-30T06:21:27.947Z,77.90
2018-06-30T06:23:55.830Z,77.90
2018-06-30T06:28:51.618Z,78.30
2018-06-30T06:31:19.515Z,78.40
2018-06-30T06:33:47.380Z,78.80
2018-06-30T06:41:11.032Z,77.80
2018-06-30T06:43:38.999Z,77.50
2018-06-30T06:46:06.876Z,77.70
2018-06-30T06:48:34.729Z,77.30
2018-06-30T06:51:02.656Z,77.70
2018-06-30T06:53:30.530Z,77.70
2018-06-30T06:58:26.304Z,77.70
2018-06-30T07:00:54.198Z,77.40
2018-06-30T07:03:22.122Z,89.80
2018-06-30T07:05:50.055Z,77.80
2018-06-30T07:10:45.824Z,77.40
2018-06-30T07:13:13.714Z,77.20
2018-06-30T07:15:41.590Z,77.10
2018-06-30T07:18:09.517Z,76.80
2018-06-30T07:20:37.380Z,88.10
2018-06-30T07:23:05.247Z,77.00
2018-06-30T07:25:33.203Z,76.50
2018-06-30T07:28:01.037Z,76.40
2018-06-30T07:32:56.832Z,76.00
2018-06-30T07:35:24.691Z,76.20
2018-06-30T07:37:52.623Z,76.20
2018-06-30T07:42:48.453Z,76.00
2018-06-30T07:45:16.460Z,75.70
2018-06-30T07:47:44.396Z,76.90
2018-06-30T07:50:12.365Z,76.30
2018-06-30T07:52:40.123Z,76.50
2018-06-30T07:57:35.896Z,76.40
2018-06-30T08:00:04.230Z,76.30
2018-06-30T08:04:59.969Z,76.80
2018-06-30T08:07:28.013Z,76.00
2018-06-30T08:09:55.871Z,76.70
2018-06-30T08:12:23.882Z,76.70
2018-06-30T08:14:51.815Z,77.10
2018-06-30T08:22:15.515Z,76.00
2018-06-30T08:24:43.414Z,75.60
2018-06-30T08:27:11.313Z,75.00
2018-06-30T08:29:39.195Z,75.00
2018-06-30T08:32:07.086Z,74.90
2018-06-30T08:37:02.896Z,74.10
2018-06-30T08:39:30.811Z,73.90
2018-06-30T08:41:58.674Z,74.10
2018-06-30T08:44:26.575Z,74.20
2018-06-30T08:46:54.521Z,73.90
2018-06-30T08:49:22.420Z,73.50
2018-06-30T08:51:50.297Z,73.00
2018-06-30T08:54:18.168Z,72.90
2018-06-30T08:56:46.060Z,84.40
2018-06-30T09:04:09.696Z,72.70
2018-06-30T09:06:37.587Z,73.50
2018-06-30T09:09:08.233Z,72.80
2018-06-30T09:11:36.107Z,85.00
2018-06-30T09:14:04.129Z,73.20
2018-06-30T09:16:32.126Z,73.30
2018-06-30T09:18:59.997Z,72.60
2018-06-30T09:21:27.877Z,72.20
2018-06-30T09:26:23.698Z,72.30
2018-06-30T09:28:51.586Z,71.80
2018-06-30T09:31:19.476Z,72.00
2018-06-30T09:33:47.337Z,71.70
2018-06-30T09:36:15.207Z,71.40
2018-06-30T09:38:43.112Z,71.10
2018-06-30T09:41:10.985Z,70.30
2018-06-30T09:43:38.839Z,81.60
2018-06-30T09:46:06.769Z,70.00
2018-06-30T09:48:34.679Z,69.60
2018-06-30T09:51:02.722Z,70.30
2018-06-30T09:53:30.580Z,80.90
2018-06-30T09:55:58.444Z,69.80
2018-06-30T09:58:26.338Z,70.00
2018-06-30T10:01:06.313Z,69.30
2018-06-30T10:03:34.414Z,69.30
2018-06-30T10:06:02.294Z,69.20
2018-06-30T10:08:30.181Z,69.30
2018-06-30T10:10:58.104Z,69.50
2018-06-30T10:15:54.028Z,67.90
2018-06-30T10:23:17.712Z,66.60
2018-06-30T10:25:45.582Z,66.20
2018-06-30T10:33:10.189Z,66.60
2018-06-30T10:35:38.326Z,67.40
2018-06-30T10:38:06.240Z,67.80
2018-06-30T10:45:30.374Z,66.60
2018-06-30T10:47:58.272Z,66.80
2018-06-30T10:50:26.141Z,66.70
2018-06-30T10:52:54.043Z,66.90
2018-06-30T10:55:21.914Z,66.40
2018-06-30T10:57:49.852Z,65.70
2018-06-30T11:00:17.805Z,76.70
2018-06-30T11:02:45.608Z,65.40
2018-06-30T11:05:13.556Z,65.00
2018-06-30T11:10:09.986Z,66.30
2018-06-30T11:12:38.302Z,65.40
2018-06-30T11:15:06.422Z,65.70
2018-06-30T11:17:34.343Z,75.30
2018-06-30T11:20:02.266Z,65.10
2018-06-30T11:27:25.870Z,66.20
2018-06-30T11:29:53.764Z,66.00
2018-06-30T11:32:21.649Z,65.80
2018-06-30T11:37:17.466Z,64.40
2018-06-30T11:39:45.344Z,65.10
2018-06-30T11:44:41.117Z,61.20
2018-06-30T11:47:09.018Z,62.50
2018-06-30T11:49:39.719Z,62.90
2018-06-30T11:52:07.588Z,62.40
2018-06-30T11:54:35.445Z,61.60
2018-06-30T11:57:03.357Z,62.20
2018-06-30T11:59:31.236Z,62.00
2018-06-30T12:06:54.877Z,62.70
2018-06-30T12:09:22.783Z,60.10
2018-06-30T12:11:50.672Z,58.50
2018-06-30T12:14:18.569Z,60.60
2018-06-30T12:16:46.469Z,61.90
2018-06-30T12:19:14.375Z,61.90
2018-06-30T12:24:10.143Z,59.40
2018-06-30T12:26:38.141Z,58.80
2018-06-30T12:29:06.226Z,58.30
2018-06-30T12:31:34.098Z,58.30
2018-06-30T12:34:02.005Z,55.60
2018-06-30T12:36:29.883Z,54.00
2018-06-30T12:38:57.792Z,53.90
2018-06-30T12:41:25.664Z,54.10
2018-06-30T12:43:53.541Z,53.60
2018-06-30T12:48:49.324Z,52.40
2018-06-30T12:51:17.232Z,51.80
2018-06-30T12:58:40.888Z,51.30
2018-06-30T13:01:08.770Z,51.80
2018-06-30T13:03:36.681Z,51.90
2018-06-30T13:11:00.436Z,53.30
2018-06-30T13:13:28.290Z,51.00
2018-06-30T13:15:56.198Z,51.50
2018-06-30T13:23:19.930Z,50.20
2018-06-30T13:25:47.847Z,50.20
2018-06-30T13:28:15.711Z,50.40
2018-06-30T13:30:43.596Z,49.90
2018-06-30T13:33:11.513Z,49.80
2018-06-30T13:35:39.381Z,48.00
2018-06-30T13:38:07.283Z,48.50
2018-06-30T13:40:35.170Z,48.10
2018-06-30T13:45:30.940Z,48.20
2018-06-30T13:47:58.817Z,48.30
2018-06-30T13:50:26.777Z,48.20
2018-06-30T13:52:54.683Z,47.20
2018-06-30T13:55:22.581Z,47.00
2018-06-30T14:02:46.184Z,47.50
2018-06-30T14:05:14.054Z,46.20
2018-06-30T14:07:42.049Z,44.80
2018-06-30T14:10:09.922Z,44.30
2018-06-30T14:12:37.807Z,45.00
2018-06-30T14:15:07.825Z,55.30
2018-06-30T14:17:35.708Z,55.60
2018-06-30T14:22:32.637Z,42.80
2018-06-30T14:25:00.528Z,40.80
2018-06-30T14:27:28.417Z,40.10
2018-06-30T14:29:56.287Z,40.10
2018-06-30T14:32:24.167Z,40.40
2018-06-30T14:34:52.067Z,40.60
2018-06-30T14:37:19.951Z,41.60
2018-06-30T14:39:47.865Z,53.30
2018-06-30T14:42:15.781Z,42.70
2018-06-30T14:44:43.706Z,42.00
2018-06-30T14:47:11.607Z,40.50
2018-06-30T14:49:39.526Z,41.90
2018-06-30T14:54:35.273Z,40.00
2018-06-30T14:57:03.197Z,41.30
2018-06-30T15:01:58.914Z,35.00
2018-06-30T15:04:26.804Z,33.30
2018-06-30T15:09:22.621Z,33.10
2018-06-30T15:19:14.232Z,33.10
2018-06-30T15:21:42.156Z,31.60
2018-06-30T15:31:33.712Z,33.40
2018-06-30T15:34:01.609Z,42.00
2018-06-30T15:36:29.522Z,32.80
2018-06-30T15:38:57.431Z,33.00
2018-06-30T15:46:21.343Z,33.00
2018-06-30T15:48:49.242Z,40.90
2018-06-30T15:51:17.131Z,32.20
2018-06-30T15:53:45.122Z,32.10
2018-06-30T15:56:12.984Z,32.70
2018-06-30T15:58:40.945Z,32.20
2018-06-30T16:01:08.876Z,32.90
2018-06-30T16:03:36.814Z,42.00
2018-06-30T16:06:04.719Z,34.00
2018-06-30T16:08:32.611Z,32.90
2018-06-30T16:11:00.517Z,32.90
2018-06-30T16:13:28.413Z,32.50
2018-06-30T16:15:56.326Z,33.70
2018-06-30T16:20:52.137Z,33.20
2018-06-30T16:23:20.032Z,32.70
2018-06-30T16:28:15.826Z,33.90
2018-06-30T16:30:43.693Z,33.20
2018-06-30T16:33:11.624Z,34.00
2018-06-30T16:35:39.482Z,42.80
2018-06-30T16:38:07.365Z,33.20
2018-06-30T16:40:35.314Z,33.40
2018-06-30T16:45:31.116Z,34.20
2018-06-30T16:47:58.984Z,34.30
2018-06-30T16:52:54.898Z,34.20
2018-06-30T16:55:22.769Z,34.00
2018-06-30T16:57:50.701Z,34.30
2018-06-30T17:00:18.561Z,43.00
2018-06-30T17:02:46.427Z,33.90
2018-06-30T17:05:14.333Z,34.00
2018-06-30T17:07:42.213Z,34.70
2018-06-30T17:10:10.141Z,34.10
2018-06-30T17:12:38.015Z,34.70
2018-06-30T17:15:05.925Z,34.90
2018-06-30T17:20:01.735Z,35.10
2018-06-30T17:22:29.646Z,35.40
2018-06-30T17:24:57.518Z,35.80
2018-06-30T17:27:25.386Z,35.40
2018-06-30T17:29:53.360Z,36.10
2018-06-30T17:32:21.215Z,36.10
2018-06-30T17:34:49.174Z,36.10
2018-06-30T17:37:17.047Z,35.80
2018-06-30T17:39:44.915Z,35.90
2018-06-30T17:42:12.816Z,36.40
2018-06-30T17:44:40.692Z,35.80
2018-06-30T17:47:08.615Z,36.60
2018-06-30T17:49:36.484Z,37.40
2018-06-30T17:52:04.357Z,37.00
2018-06-30T17:54:32.257Z,36.70
2018-06-30T17:57:00.154Z,37.40
2018-06-30T18:01:56.033Z,37.30
2018-06-30T18:04:23.921Z,37.40
2018-06-30T18:06:51.839Z,37.90
2018-06-30T18:09:19.726Z,38.40
2018-06-30T18:11:47.632Z,38.10
2018-06-30T18:14:15.602Z,38.10
2018-06-30T18:16:43.368Z,38.30
2018-06-30T18:19:11.267Z,38.40
2018-06-30T18:21:39.155Z,38.40
2018-06-30T18:24:07.053Z,39.20
2018-06-30T18:26:34.924Z,39.00
2018-06-30T18:29:02.871Z,39.50
2018-06-30T18:31:30.753Z,39.20
2018-06-30T18:33:58.646Z,49.80
2018-06-30T18:38:54.505Z,40.40
2018-06-30T18:41:22.392Z,40.30
2018-06-30T18:43:50.270Z,40.80
2018-06-30T18:46:18.183Z,40.80
2018-06-30T18:53:41.897Z,42.90
2018-06-30T18:56:09.811Z,43.40
2018-06-30T18:58:37.710Z,43.00
2018-06-30T19:03:33.484Z,44.40
2018-06-30T19:06:01.518Z,44.70
2018-06-30T19:13:25.409Z,45.40
2018-06-30T19:20:49.059Z,45.60
2018-06-30T19:23:16.925Z,45.90
2018-06-30T19:25:44.827Z,47.00
2018-06-30T19:28:12.724Z,46.40
2018-06-30T19:33:08.605Z,47.60
2018-06-30T19:35:36.506Z,47.40
2018-06-30T19:40:32.410Z,47.30
2018-06-30T19:43:00.308Z,47.60
2018-06-30T19:45:28.197Z,48.00
2018-06-30T19:47:56.100Z,48.40
2018-06-30T19:50:24.011Z,49.10
2018-06-30T19:55:19.871Z,49.80
2018-06-30T19:57:47.777Z,49.80
2018-06-30T20:00:15.646Z,50.40
2018-06-30T20:02:43.544Z,50.60
2018-06-30T20:12:52.272Z,51.60
2018-06-30T20:15:20.423Z,51.80
2018-06-30T20:22:43.885Z,52.20
2018-06-30T20:27:39.721Z,52.90
2018-06-30T20:32:35.520Z,53.50
2018-06-30T20:35:03.403Z,53.30
2018-06-30T20:37:31.297Z,53.40
2018-06-30T20:39:59.238Z,53.50
2018-06-30T20:47:23.031Z,54.50
2018-06-30T20:49:50.971Z,66.00
2018-06-30T20:52:18.902Z,54.50
2018-06-30T20:54:46.802Z,55.20
2018-06-30T20:57:14.752Z,56.30
2018-06-30T20:59:42.666Z,55.70
2018-06-30T21:02:10.554Z,56.00
2018-06-30T21:07:06.330Z,56.00
2018-06-30T21:09:34.836Z,56.60
2018-06-30T21:12:02.741Z,56.50
2018-06-30T21:16:58.656Z,57.30
2018-06-30T21:21:54.464Z,58.10
2018-06-30T21:24:22.363Z,57.90
2018-06-30T21:31:46.045Z,58.90
2018-06-30T21:34:13.924Z,59.20
2018-06-30T21:39:11.545Z,59.50
2018-06-30T21:41:39.443Z,59.70
2018-06-30T21:44:07.351Z,60.40
2018-06-30T21:46:35.516Z,60.60
2018-06-30T21:49:03.528Z,60.60
2018-06-30T21:51:31.383Z,60.80
2018-06-30T21:53:59.592Z,61.30
2018-06-30T21:56:27.557Z,61.40
2018-06-30T22:01:30.246Z,61.70
2018-06-30T22:03:58.537Z,61.70
2018-06-30T22:06:27.011Z,73.80
2018-06-30T22:08:55.466Z,62.00
2018-06-30T22:16:22.914Z,62.80
2018-06-30T22:21:20.218Z,63.10
2018-06-30T22:23:48.952Z,62.80
2018-06-30T22:26:17.893Z,63.10
2018-06-30T22:28:46.620Z,74.80
2018-06-30T22:31:15.253Z,63.00
2018-06-30T22:33:44.179Z,62.90
2018-06-30T22:41:11.707Z,63.20
2018-06-30T22:46:08.133Z,63.00
2018-06-30T22:48:36.791Z,63.10
2018-06-30T22:51:05.344Z,63.40
2018-06-30T22:53:33.806Z,63.20
2018-06-30T22:56:01.702Z,63.20
2018-06-30T22:58:29.603Z,63.40
2018-06-30T23:03:25.479Z,64.00
2018-06-30T23:05:53.454Z,63.70
2018-06-30T23:08:21.344Z,63.70
2018-06-30T23:10:49.277Z,63.50
2018-06-30T23:13:17.148Z,64.10
2018-06-30T23:15:45.051Z,64.00
2018-06-30T23:18:12.975Z,64.00
2018-06-30T23:20:40.837Z,64.10
2018-06-30T23:23:09.662Z,64.30
2018-06-30T23:25:38.378Z,64.40
2018-06-30T23:28:06.641Z,64.40
2018-06-30T23:30:34.735Z,64.40
2018-06-30T23:35:31.468Z,64.40
2018-06-30T23:38:00.220Z,64.50
2018-06-30T23:40:28.209Z,65.00
2018-06-30T23:42:56.107Z,65.10
2018-06-30T23:47:53.049Z,65.30
2018-06-30T23:50:21.292Z,65.40
2018-06-30T23:52:49.271Z,77.60
2018-06-30T23:55:17.183Z,65.40
